Impacts METAR Board
IDs:

KCVG - Cincinnati Intl, KY, US

Updated at: 2300 UTC 19 Jan 2019
Potential Impact None Slight Moderate High
Time 19/11Z 19/12Z 19/13Z 19/14Z 19/15Z 19/16Z 19/17Z 19/18Z 19/19Z 19/20Z 19/21Z 19/22Z 19/23Z
Temp36 35 35 36 36 37 38 39 39 38 36 35 35
Dewpt31 32 33 34 34 37 37 38 38 37 35 34 33
Altim29.89 29.84 29.82 29.78 29.74 29.73 29.68 29.62 29.58 29.54 29.53 29.54 29.53
VIS9 4 2.5 2 1 1 0.75 0.25 0.25 0.25 1.75 1.75 2.5
CIG40 28 22 6 4 4 4 3 3 3 4 5 7
CoverOVCOVCOVCOVCOVCOVCOVCOVCOVCOVCOVCOVCOVC
FltCatVFRMVFRIFRIFRLIFRLIFRLIFRLIFRLIFRLIFRLIFRIFRIFR
WX--RA BR+RA BRRA BRRA BR-RA BRRA BR-RA BR-RA BR-RA BR-RA BR-RA BR-RA
WDir70909080806060803040101030
WSpd9 10 11 12 10 5 9 7 8 11 14 18 16
WGst-- -- -- -- -- -- -- -- -- -- -- -- 25
Raw hourly METARs
KCVG 191052Z 07009KT 9SM FEW011 BKN040 OVC050 02/M01 A2989 RMK AO2 SLP127 T00221006
KCVG 191152Z 09010KT 4SM RA BR BKN028 OVC031 02/00 A2984 RMK AO2 RAB35 SLP110 P0001 60001 70001 T00170000 10022 20017 56041
KCVG 191252Z 09011KT 2 1/2SM +RA BR BKN022 OVC029 02/01 A2982 RMK AO2 SLP102 P0015 T00170006
KCVG 191352Z 08012KT 2SM R18C/6000VP6000FT RA BR BKN006 OVC009 02/01 A2978 RMK AO2 SLP090 P0023 T00220011
KCVG 191452Z 08010KT 1SM R18C/P6000FT RA BR OVC004 02/01 A2974 RMK AO2 SFC VIS 2 SLP075 P0011 60049 T00220011 58034
KCVG 191552Z 06005KT 1SM R18C/P6000FT -RA BR OVC004 03/03 A2973 RMK AO2 SFC VIS 2 SLP073 P0006 T00280028
KCVG 191652Z 06009KT 3/4SM R18C/P6000FT RA BR OVC004 03/03 A2968 RMK AO2 SFC VIS 2 PRESFR SLP054 P0010 T00330028
KCVG 191752Z 08007KT 1/4SM R18C/P6000FT -RA BR BKN003 OVC004 04/03 A2962 RMK AO2 SFC VIS 2 SLP034 P0008 60073 T00390033 10039 20017 58038
KCVG 191852Z 03008KT 1/4SM R18C/P6000FT -RA BR OVC003 04/03 A2958 RMK AO2 SFC VIS 2 SLP018 P0008 T00390033
KCVG 191952Z 04011KT 1/4SM R18C/P6000FT -RA BR OVC003 03/03 A2954 RMK AO2 SFC VIS 3 SLP004 P0004 T00330028
KCVG 192052Z 01014KT 1 3/4SM -RA BR OVC004 02/02 A2953 RMK AO2 SFC VIS 3 SLP004 P0005 60017 T00220017 56030
KCVG 192152Z 01018KT 1 3/4SM -RA BR SCT004 OVC005 02/01 A2954 RMK AO2 SFC VIS 2 SLP005 P0005 T00170011
KCVG 192252Z COR 03016G25KT 2 1/2SM -RA BKN007 OVC017 02/01 A2953 RMK AO2 PK WND 02027/2240 SFC VIS 6 SLP003 P0007 T00170006



Page loaded:  23:29 UTC  |   03:29 PM Pacific  |   04:29 PM Mountain  |   05:29 PM Central  |   06:29 PM Eastern

 

ADVISORIES

FORECASTS

FORECASTS

OBSERVATIONS

USER TOOLS

ABOUT US